This is the latest recevied weather packets stored in our database for station/object 9M2SES-13. If no packets are shown the sender has not sent any weather packets the latest 10 day(s).
| Time | Temp. | Humidity | Pressure | Rain* | Wind** | Luminosity | Snow |
|---|---|---|---|---|---|---|---|
| 1777547079 | 30° C | 95% | - | 0 mm | - | 0 W/m² | - |
| 1777546478 | 28.89° C | 95% | - | 0 mm | - | 0 W/m² | - |
| 1777545276 | 30° C | 95% | - | 0 mm | - | 0 W/m² | - |
| 1777544676 | 30.56° C | 95% | - | 0 mm | - | 0 W/m² | - |
| 1777542873 | 28.89° C | 95% | - | 0 mm | - | 0 W/m² | - |
| 1777541071 | 30° C | 95% | - | 0 mm | - | 0 W/m² | - |
| 1777540470 | 28.89° C | 95% | - | 0 mm | - | 0 W/m² | - |
| 1777538668 | 32.78° C | 36% | - | 0 mm | - | 0 W/m² | - |
| 1777538067 | 33.89° C | 11% | - | 0 mm | - | 0 W/m² | - |
| 1777536866 | 36.67° C | 11% | - | 0 mm | - | 0 W/m² | - |
| 1777535664 | 35.56° C | 11% | - | 0 mm | - | 0 W/m² | - |
| 1777534463 | 35.56° C | 11% | - | 0 mm | - | 0 W/m² | - |
| 1777533261 | 33.89° C | 10% | - | 0 mm | - | 0 W/m² | - |
| 1777530858 | 36.67° C | 11% | - | 0 mm | - | 0 W/m² | - |
| 1777530257 | 35° C | 10% | - | 0 mm | - | 0 W/m² | - |
| 1777529656 | 35° C | 10% | - | 0 mm | - | 0 W/m² | - |
| 1777528455 | 36.67° C | 11% | - | 0 mm | - | 0 W/m² | - |
| 1777527854 | 35.56° C | 11% | - | 0 mm | - | 0 W/m² | - |
| 1777526652 | 35° C | 10% | - | 0 mm | - | 0 W/m² | - |
| 1777526052 | 35.56° C | 11% | - | 0 mm | - | 0 W/m² | - |
| 1777524850 | 35° C | 10% | - | 0 mm | - | 0 W/m² | - |
| 1777524249 | 32.78° C | 17% | - | 0 mm | - | 0 W/m² | - |
| 1777523048 | 32.78° C | 27% | - | 0 mm | - | 0 W/m² | - |
| 1777522447 | 32.78° C | 37% | - | 0 mm | - | 0 W/m² | - |
| 1777521846 | 33.89° C | 27% | - | 0 mm | - | 0 W/m² | - |
* Rain latest hour (hover to see other rain measurements)
** Current wind speed in m/s (hover to see current wind gust speed)